sensor_id;sensor_type;location;lat;lon;timestamp;P1;durP1;ratioP1;P2;durP2;ratioP2
46318;SDS011;32042;50.916;2.926;2022-08-16T00:00:48;17.35;;;15.98;;
46318;SDS011;32042;50.916;2.926;2022-08-16T00:03:14;20.17;;;16.98;;
46318;SDS011;32042;50.916;2.926;2022-08-16T00:05:41;18.48;;;16.88;;
46318;SDS011;32042;50.916;2.926;2022-08-16T00:08:08;19.20;;;17.20;;
46318;SDS011;32042;50.916;2.926;2022-08-16T00:10:35;19.92;;;17.73;;
46318;SDS011;32042;50.916;2.926;2022-08-16T00:13:03;19.00;;;17.13;;
46318;SDS011;32042;50.916;2.926;2022-08-16T00:15:32;18.95;;;17.27;;
46318;SDS011;32042;50.916;2.926;2022-08-16T00:18:01;22.45;;;17.48;;
46318;SDS011;32042;50.916;2.926;2022-08-16T00:20:28;19.45;;;17.65;;
46318;SDS011;32042;50.916;2.926;2022-08-16T00:22:55;19.55;;;17.55;;
46318;SDS011;32042;50.916;2.926;2022-08-16T00:25:23;19.52;;;17.40;;
46318;SDS011;32042;50.916;2.926;2022-08-16T00:27:51;19.45;;;17.00;;
46318;SDS011;32042;50.916;2.926;2022-08-16T00:30:17;19.65;;;17.65;;
46318;SDS011;32042;50.916;2.926;2022-08-16T00:32:45;20.38;;;17.30;;
46318;SDS011;32042;50.916;2.926;2022-08-16T00:35:15;19.80;;;17.60;;
46318;SDS011;32042;50.916;2.926;2022-08-16T00:37:43;21.38;;;17.77;;
46318;SDS011;32042;50.916;2.926;2022-08-16T00:40:11;18.77;;;17.05;;
46318;SDS011;32042;50.916;2.926;2022-08-16T00:42:39;22.38;;;18.73;;
46318;SDS011;32042;50.916;2.926;2022-08-16T00:45:27;20.10;;;18.15;;
46318;SDS011;32042;50.916;2.926;2022-08-16T00:48:05;23.00;;;18.08;;
46318;SDS011;32042;50.916;2.926;2022-08-16T00:50:35;20.63;;;18.60;;
46318;SDS011;32042;50.916;2.926;2022-08-16T00:53:04;20.05;;;18.02;;
46318;SDS011;32042;50.916;2.926;2022-08-16T00:55:30;20.02;;;17.90;;
46318;SDS011;32042;50.916;2.926;2022-08-16T00:57:56;19.42;;;17.50;;
46318;SDS011;32042;50.916;2.926;2022-08-16T01:00:23;18.60;;;16.85;;
46318;SDS011;32042;50.916;2.926;2022-08-16T01:02:52;19.25;;;17.33;;
46318;SDS011;32042;50.916;2.926;2022-08-16T01:05:20;20.00;;;17.88;;
46318;SDS011;32042;50.916;2.926;2022-08-16T01:07:46;18.63;;;17.02;;
46318;SDS011;32042;50.916;2.926;2022-08-16T01:10:12;17.83;;;16.33;;
46318;SDS011;32042;50.916;2.926;2022-08-16T01:12:38;19.08;;;17.08;;
46318;SDS011;32042;50.916;2.926;2022-08-16T01:15:04;23.33;;;17.50;;
46318;SDS011;32042;50.916;2.926;2022-08-16T01:17:30;18.13;;;16.63;;
46318;SDS011;32042;50.916;2.926;2022-08-16T01:19:59;20.17;;;17.17;;
46318;SDS011;32042;50.916;2.926;2022-08-16T01:25:41;19.33;;;17.23;;
46318;SDS011;32042;50.916;2.926;2022-08-16T01:28:15;19.92;;;18.13;;
46318;SDS011;32042;50.916;2.926;2022-08-16T01:30:44;19.08;;;17.33;;
46318;SDS011;32042;50.916;2.926;2022-08-16T01:33:13;19.63;;;17.42;;
46318;SDS011;32042;50.916;2.926;2022-08-16T01:38:34;19.50;;;17.83;;
46318;SDS011;32042;50.916;2.926;2022-08-16T01:41:06;19.10;;;17.20;;
46318;SDS011;32042;50.916;2.926;2022-08-16T01:43:37;21.75;;;17.33;;
46318;SDS011;32042;50.916;2.926;2022-08-16T01:48:54;28.40;;;17.52;;
46318;SDS011;32042;50.916;2.926;2022-08-16T01:51:23;18.15;;;16.35;;
46318;SDS011;32042;50.916;2.926;2022-08-16T01:53:50;18.25;;;16.67;;
46318;SDS011;32042;50.916;2.926;2022-08-16T01:56:17;19.75;;;17.58;;
46318;SDS011;32042;50.916;2.926;2022-08-16T01:58:43;19.33;;;17.52;;
46318;SDS011;32042;50.916;2.926;2022-08-16T02:01:09;18.50;;;16.73;;
46318;SDS011;32042;50.916;2.926;2022-08-16T02:03:35;22.02;;;17.77;;
46318;SDS011;32042;50.916;2.926;2022-08-16T02:06:01;18.77;;;17.02;;
46318;SDS011;32042;50.916;2.926;2022-08-16T02:08:27;18.83;;;17.02;;
46318;SDS011;32042;50.916;2.926;2022-08-16T02:10:52;19.02;;;17.10;;
46318;SDS011;32042;50.916;2.926;2022-08-16T02:13:18;19.92;;;17.20;;
46318;SDS011;32042;50.916;2.926;2022-08-16T02:15:45;19.38;;;17.15;;
46318;SDS011;32042;50.916;2.926;2022-08-16T02:18:11;18.52;;;16.67;;
46318;SDS011;32042;50.916;2.926;2022-08-16T02:20:37;19.38;;;17.42;;
46318;SDS011;32042;50.916;2.926;2022-08-16T02:23:06;24.52;;;18.60;;
46318;SDS011;32042;50.916;2.926;2022-08-16T02:25:33;19.42;;;17.73;;
46318;SDS011;32042;50.916;2.926;2022-08-16T02:27:59;19.33;;;17.33;;
46318;SDS011;32042;50.916;2.926;2022-08-16T02:30:27;18.50;;;16.67;;
46318;SDS011;32042;50.916;2.926;2022-08-16T02:32:56;17.92;;;16.38;;
46318;SDS011;32042;50.916;2.926;2022-08-16T02:35:23;20.15;;;18.05;;
46318;SDS011;32042;50.916;2.926;2022-08-16T02:37:51;20.13;;;18.00;;
46318;SDS011;32042;50.916;2.926;2022-08-16T02:40:19;19.45;;;17.23;;
46318;SDS011;32042;50.916;2.926;2022-08-16T02:42:48;21.42;;;19.38;;
46318;SDS011;32042;50.916;2.926;2022-08-16T02:45:16;20.40;;;17.48;;
46318;SDS011;32042;50.916;2.926;2022-08-16T02:47:44;20.88;;;18.70;;
46318;SDS011;32042;50.916;2.926;2022-08-16T02:50:10;19.73;;;17.80;;
46318;SDS011;32042;50.916;2.926;2022-08-16T02:52:37;19.17;;;17.50;;
46318;SDS011;32042;50.916;2.926;2022-08-16T02:55:04;19.27;;;17.25;;
46318;SDS011;32042;50.916;2.926;2022-08-16T02:57:31;19.88;;;17.52;;
46318;SDS011;32042;50.916;2.926;2022-08-16T02:59:57;19.67;;;17.85;;
46318;SDS011;32042;50.916;2.926;2022-08-16T03:02:24;19.55;;;17.52;;
46318;SDS011;32042;50.916;2.926;2022-08-16T03:04:50;18.73;;;16.85;;
46318;SDS011;32042;50.916;2.926;2022-08-16T03:07:16;18.55;;;16.52;;
46318;SDS011;32042;50.916;2.926;2022-08-16T03:09:43;22.48;;;18.27;;
46318;SDS011;32042;50.916;2.926;2022-08-16T03:12:09;19.55;;;17.33;;
46318;SDS011;32042;50.916;2.926;2022-08-16T03:14:35;19.05;;;17.27;;
46318;SDS011;32042;50.916;2.926;2022-08-16T03:17:01;19.98;;;16.92;;
46318;SDS011;32042;50.916;2.926;2022-08-16T03:19:28;18.90;;;17.23;;
46318;SDS011;32042;50.916;2.926;2022-08-16T03:21:55;19.63;;;17.85;;
46318;SDS011;32042;50.916;2.926;2022-08-16T03:24:20;20.35;;;18.45;;
46318;SDS011;32042;50.916;2.926;2022-08-16T03:26:46;20.75;;;17.20;;
46318;SDS011;32042;50.916;2.926;2022-08-16T03:29:12;20.25;;;18.13;;
46318;SDS011;32042;50.916;2.926;2022-08-16T03:31:38;19.23;;;17.33;;
46318;SDS011;32042;50.916;2.926;2022-08-16T03:34:03;25.25;;;18.38;;
46318;SDS011;32042;50.916;2.926;2022-08-16T03:36:29;18.27;;;16.35;;
46318;SDS011;32042;50.916;2.926;2022-08-16T03:38:55;19.45;;;17.10;;
46318;SDS011;32042;50.916;2.926;2022-08-16T03:41:21;20.95;;;18.73;;
46318;SDS011;32042;50.916;2.926;2022-08-16T03:43:47;20.30;;;17.48;;
46318;SDS011;32042;50.916;2.926;2022-08-16T03:46:13;23.58;;;19.05;;
46318;SDS011;32042;50.916;2.926;2022-08-16T03:48:39;19.63;;;17.60;;
46318;SDS011;32042;50.916;2.926;2022-08-16T03:51:07;19.23;;;17.38;;
46318;SDS011;32042;50.916;2.926;2022-08-16T03:53:34;19.33;;;17.42;;
46318;SDS011;32042;50.916;2.926;2022-08-16T03:56:00;20.35;;;18.30;;
46318;SDS011;32042;50.916;2.926;2022-08-16T03:58:26;20.48;;;16.45;;
46318;SDS011;32042;50.916;2.926;2022-08-16T04:00:53;19.63;;;17.60;;
46318;SDS011;32042;50.916;2.926;2022-08-16T04:03:19;21.60;;;16.88;;
46318;SDS011;32042;50.916;2.926;2022-08-16T04:05:46;19.95;;;17.60;;
46318;SDS011;32042;50.916;2.926;2022-08-16T04:08:15;19.58;;;17.55;;
46318;SDS011;32042;50.916;2.926;2022-08-16T04:10:43;22.67;;;17.23;;
46318;SDS011;32042;50.916;2.926;2022-08-16T04:13:09;19.35;;;17.35;;
46318;SDS011;32042;50.916;2.926;2022-08-16T04:15:35;19.13;;;17.20;;
46318;SDS011;32042;50.916;2.926;2022-08-16T04:18:02;17.65;;;15.77;;
46318;SDS011;32042;50.916;2.926;2022-08-16T04:20:28;17.75;;;16.17;;
46318;SDS011;32042;50.916;2.926;2022-08-16T04:22:55;21.10;;;17.05;;
46318;SDS011;32042;50.916;2.926;2022-08-16T04:25:21;19.75;;;17.65;;
46318;SDS011;32042;50.916;2.926;2022-08-16T04:27:47;19.05;;;17.10;;
46318;SDS011;32042;50.916;2.926;2022-08-16T04:30:14;20.10;;;18.00;;
46318;SDS011;32042;50.916;2.926;2022-08-16T04:32:41;20.35;;;18.45;;
46318;SDS011;32042;50.916;2.926;2022-08-16T04:35:09;27.42;;;18.98;;
46318;SDS011;32042;50.916;2.926;2022-08-16T04:37:41;24.13;;;18.40;;
46318;SDS011;32042;50.916;2.926;2022-08-16T04:40:08;20.70;;;18.52;;
46318;SDS011;32042;50.916;2.926;2022-08-16T04:42:35;20.73;;;18.55;;
46318;SDS011;32042;50.916;2.926;2022-08-16T04:45:04;21.63;;;18.85;;
46318;SDS011;32042;50.916;2.926;2022-08-16T04:47:31;19.85;;;18.02;;
46318;SDS011;32042;50.916;2.926;2022-08-16T04:49:57;23.23;;;19.33;;
46318;SDS011;32042;50.916;2.926;2022-08-16T04:52:23;29.20;;;19.17;;
46318;SDS011;32042;50.916;2.926;2022-08-16T04:54:48;20.75;;;18.63;;
46318;SDS011;32042;50.916;2.926;2022-08-16T04:57:14;21.95;;;18.83;;
46318;SDS011;32042;50.916;2.926;2022-08-16T04:59:40;21.77;;;19.48;;
46318;SDS011;32042;50.916;2.926;2022-08-16T05:02:06;20.83;;;18.60;;
46318;SDS011;32042;50.916;2.926;2022-08-16T05:04:32;22.10;;;18.20;;
46318;SDS011;32042;50.916;2.926;2022-08-16T05:06:57;20.30;;;18.15;;
46318;SDS011;32042;50.916;2.926;2022-08-16T05:09:23;21.88;;;19.13;;
46318;SDS011;32042;50.916;2.926;2022-08-16T05:11:49;22.40;;;18.42;;
46318;SDS011;32042;50.916;2.926;2022-08-16T05:14:15;22.98;;;20.00;;
46318;SDS011;32042;50.916;2.926;2022-08-16T05:16:41;22.48;;;19.95;;
46318;SDS011;32042;50.916;2.926;2022-08-16T05:19:07;24.90;;;20.48;;
46318;SDS011;32042;50.916;2.926;2022-08-16T05:21:33;23.58;;;20.83;;
46318;SDS011;32042;50.916;2.926;2022-08-16T05:23:59;24.55;;;20.33;;
46318;SDS011;32042;50.916;2.926;2022-08-16T05:26:26;22.60;;;20.38;;
46318;SDS011;32042;50.916;2.926;2022-08-16T05:28:54;28.48;;;20.08;;
46318;SDS011;32042;50.916;2.926;2022-08-16T05:31:21;25.95;;;20.73;;
46318;SDS011;32042;50.916;2.926;2022-08-16T05:33:48;37.35;;;21.65;;
46318;SDS011;32042;50.916;2.926;2022-08-16T05:36:14;27.17;;;21.60;;
46318;SDS011;32042;50.916;2.926;2022-08-16T05:38:40;25.90;;;22.65;;
46318;SDS011;32042;50.916;2.926;2022-08-16T05:41:06;28.83;;;22.33;;
46318;SDS011;32042;50.916;2.926;2022-08-16T05:43:31;25.90;;;22.45;;
46318;SDS011;32042;50.916;2.926;2022-08-16T05:45:58;24.27;;;21.67;;
46318;SDS011;32042;50.916;2.926;2022-08-16T05:48:24;25.45;;;22.88;;
46318;SDS011;32042;50.916;2.926;2022-08-16T05:50:50;30.27;;;22.63;;
46318;SDS011;32042;50.916;2.926;2022-08-16T05:53:16;24.08;;;21.60;;
46318;SDS011;32042;50.916;2.926;2022-08-16T05:55:42;29.02;;;22.15;;
46318;SDS011;32042;50.916;2.926;2022-08-16T05:58:08;28.95;;;21.98;;
46318;SDS011;32042;50.916;2.926;2022-08-16T06:00:34;26.63;;;21.77;;
46318;SDS011;32042;50.916;2.926;2022-08-16T06:03:01;26.67;;;22.02;;
46318;SDS011;32042;50.916;2.926;2022-08-16T06:05:26;28.85;;;22.77;;
46318;SDS011;32042;50.916;2.926;2022-08-16T06:07:52;24.33;;;21.70;;
46318;SDS011;32042;50.916;2.926;2022-08-16T06:10:18;26.70;;;22.90;;
46318;SDS011;32042;50.916;2.926;2022-08-16T06:12:44;25.45;;;22.95;;
46318;SDS011;32042;50.916;2.926;2022-08-16T06:15:11;25.92;;;23.13;;
46318;SDS011;32042;50.916;2.926;2022-08-16T06:17:39;23.17;;;20.83;;
46318;SDS011;32042;50.916;2.926;2022-08-16T06:20:06;24.75;;;21.45;;
46318;SDS011;32042;50.916;2.926;2022-08-16T06:22:34;27.15;;;22.90;;
46318;SDS011;32042;50.916;2.926;2022-08-16T06:25:02;24.00;;;21.58;;
46318;SDS011;32042;50.916;2.926;2022-08-16T06:27:28;27.77;;;21.88;;
46318;SDS011;32042;50.916;2.926;2022-08-16T06:29:54;24.70;;;21.40;;
46318;SDS011;32042;50.916;2.926;2022-08-16T06:32:20;25.05;;;22.35;;
46318;SDS011;32042;50.916;2.926;2022-08-16T06:34:46;23.95;;;21.52;;
46318;SDS011;32042;50.916;2.926;2022-08-16T06:37:12;24.42;;;20.45;;
46318;SDS011;32042;50.916;2.926;2022-08-16T06:39:37;22.85;;;20.60;;
46318;SDS011;32042;50.916;2.926;2022-08-16T06:42:03;22.65;;;20.30;;
46318;SDS011;32042;50.916;2.926;2022-08-16T06:44:29;23.35;;;20.95;;
46318;SDS011;32042;50.916;2.926;2022-08-16T06:46:55;26.95;;;19.60;;
46318;SDS011;32042;50.916;2.926;2022-08-16T06:49:21;22.88;;;19.77;;
46318;SDS011;32042;50.916;2.926;2022-08-16T06:51:47;26.67;;;20.27;;
46318;SDS011;32042;50.916;2.926;2022-08-16T06:54:12;26.33;;;20.00;;
46318;SDS011;32042;50.916;2.926;2022-08-16T06:56:38;20.60;;;18.63;;
46318;SDS011;32042;50.916;2.926;2022-08-16T06:59:04;27.35;;;19.55;;
46318;SDS011;32042;50.916;2.926;2022-08-16T07:01:30;20.33;;;18.25;;
46318;SDS011;32042;50.916;2.926;2022-08-16T07:03:56;21.48;;;19.17;;
46318;SDS011;32042;50.916;2.926;2022-08-16T07:06:21;23.88;;;19.08;;
46318;SDS011;32042;50.916;2.926;2022-08-16T07:08:48;24.67;;;19.88;;
46318;SDS011;32042;50.916;2.926;2022-08-16T07:11:14;21.65;;;19.52;;
46318;SDS011;32042;50.916;2.926;2022-08-16T07:13:41;27.63;;;19.63;;
46318;SDS011;32042;50.916;2.926;2022-08-16T07:16:07;21.35;;;19.08;;
46318;SDS011;32042;50.916;2.926;2022-08-16T07:18:42;24.52;;;19.23;;
46318;SDS011;32042;50.916;2.926;2022-08-16T07:21:08;25.27;;;19.30;;
46318;SDS011;32042;50.916;2.926;2022-08-16T07:23:37;20.73;;;18.42;;
46318;SDS011;32042;50.916;2.926;2022-08-16T07:26:03;17.73;;;16.05;;
46318;SDS011;32042;50.916;2.926;2022-08-16T07:28:31;24.88;;;18.13;;
46318;SDS011;32042;50.916;2.926;2022-08-16T07:30:57;22.52;;;18.05;;
46318;SDS011;32042;50.916;2.926;2022-08-16T07:33:26;22.13;;;17.30;;
46318;SDS011;32042;50.916;2.926;2022-08-16T07:35:51;21.30;;;17.13;;
46318;SDS011;32042;50.916;2.926;2022-08-16T07:38:17;20.55;;;17.52;;
46318;SDS011;32042;50.916;2.926;2022-08-16T07:40:43;22.02;;;16.70;;
46318;SDS011;32042;50.916;2.926;2022-08-16T07:43:08;22.33;;;17.25;;
46318;SDS011;32042;50.916;2.926;2022-08-16T07:45:34;19.23;;;16.98;;
46318;SDS011;32042;50.916;2.926;2022-08-16T07:48:00;17.73;;;15.95;;
46318;SDS011;32042;50.916;2.926;2022-08-16T07:50:25;17.00;;;15.38;;
46318;SDS011;32042;50.916;2.926;2022-08-16T07:52:52;17.13;;;15.52;;
46318;SDS011;32042;50.916;2.926;2022-08-16T07:55:17;16.52;;;14.93;;
46318;SDS011;32042;50.916;2.926;2022-08-16T07:57:43;16.70;;;14.85;;
46318;SDS011;32042;50.916;2.926;2022-08-16T08:00:10;22.35;;;15.50;;
46318;SDS011;32042;50.916;2.926;2022-08-16T08:02:37;16.20;;;14.60;;
46318;SDS011;32042;50.916;2.926;2022-08-16T08:05:04;21.45;;;15.68;;
46318;SDS011;32042;50.916;2.926;2022-08-16T08:07:31;17.83;;;15.15;;
46318;SDS011;32042;50.916;2.926;2022-08-16T08:09:57;18.83;;;14.93;;
46318;SDS011;32042;50.916;2.926;2022-08-16T08:12:23;16.98;;;15.13;;
46318;SDS011;32042;50.916;2.926;2022-08-16T08:14:49;16.67;;;14.07;;
46318;SDS011;32042;50.916;2.926;2022-08-16T08:17:15;18.90;;;14.23;;
46318;SDS011;32042;50.916;2.926;2022-08-16T08:19:41;16.10;;;14.45;;
46318;SDS011;32042;50.916;2.926;2022-08-16T08:22:08;21.02;;;13.05;;
46318;SDS011;32042;50.916;2.926;2022-08-16T08:24:34;16.92;;;13.32;;
46318;SDS011;32042;50.916;2.926;2022-08-16T08:27:03;19.05;;;13.27;;
46318;SDS011;32042;50.916;2.926;2022-08-16T08:29:29;15.13;;;13.75;;
46318;SDS011;32042;50.916;2.926;2022-08-16T08:31:56;18.23;;;12.77;;
46318;SDS011;32042;50.916;2.926;2022-08-16T08:34:22;13.85;;;12.65;;
46318;SDS011;32042;50.916;2.926;2022-08-16T08:36:49;13.88;;;12.38;;
46318;SDS011;32042;50.916;2.926;2022-08-16T08:39:15;11.90;;;10.30;;
46318;SDS011;32042;50.916;2.926;2022-08-16T08:41:41;12.32;;;11.07;;
46318;SDS011;32042;50.916;2.926;2022-08-16T08:44:08;12.25;;;11.02;;
46318;SDS011;32042;50.916;2.926;2022-08-16T08:46:34;10.98;;;9.82;;
46318;SDS011;32042;50.916;2.926;2022-08-16T08:49:00;11.95;;;9.82;;
46318;SDS011;32042;50.916;2.926;2022-08-16T08:51:26;10.85;;;9.95;;
46318;SDS011;32042;50.916;2.926;2022-08-16T08:53:52;11.10;;;10.05;;
46318;SDS011;32042;50.916;2.926;2022-08-16T08:56:18;10.75;;;9.77;;
46318;SDS011;32042;50.916;2.926;2022-08-16T08:58:44;16.00;;;8.80;;
46318;SDS011;32042;50.916;2.926;2022-08-16T09:01:10;10.52;;;8.23;;
46318;SDS011;32042;50.916;2.926;2022-08-16T09:03:36;10.23;;;9.18;;
46318;SDS011;32042;50.916;2.926;2022-08-16T09:06:03;10.38;;;8.70;;
46318;SDS011;32042;50.916;2.926;2022-08-16T09:08:30;7.60;;;7.00;;
46318;SDS011;32042;50.916;2.926;2022-08-16T09:10:56;9.13;;;7.50;;
46318;SDS011;32042;50.916;2.926;2022-08-16T09:13:23;12.80;;;7.40;;
46318;SDS011;32042;50.916;2.926;2022-08-16T09:15:51;9.45;;;6.50;;
46318;SDS011;32042;50.916;2.926;2022-08-16T09:18:19;10.65;;;6.60;;
46318;SDS011;32042;50.916;2.926;2022-08-16T09:20:46;9.43;;;6.50;;
46318;SDS011;32042;50.916;2.926;2022-08-16T09:23:13;7.53;;;6.90;;
46318;SDS011;32042;50.916;2.926;2022-08-16T09:25:39;10.25;;;6.30;;
46318;SDS011;32042;50.916;2.926;2022-08-16T09:28:05;9.00;;;5.75;;
46318;SDS011;32042;50.916;2.926;2022-08-16T09:30:31;6.10;;;5.20;;
46318;SDS011;32042;50.916;2.926;2022-08-16T09:33:01;5.18;;;4.78;;
46318;SDS011;32042;50.916;2.926;2022-08-16T09:35:28;5.35;;;4.15;;
46318;SDS011;32042;50.916;2.926;2022-08-16T09:37:54;4.63;;;3.72;;
46318;SDS011;32042;50.916;2.926;2022-08-16T09:40:21;6.60;;;4.00;;
46318;SDS011;32042;50.916;2.926;2022-08-16T09:42:47;5.53;;;3.67;;
46318;SDS011;32042;50.916;2.926;2022-08-16T09:45:14;7.47;;;3.30;;
46318;SDS011;32042;50.916;2.926;2022-08-16T09:47:40;5.88;;;4.07;;
46318;SDS011;32042;50.916;2.926;2022-08-16T09:50:06;6.55;;;4.20;;
46318;SDS011;32042;50.916;2.926;2022-08-16T09:52:33;4.85;;;4.40;;
46318;SDS011;32042;50.916;2.926;2022-08-16T09:55:05;5.15;;;4.70;;
46318;SDS011;32042;50.916;2.926;2022-08-16T09:57:36;6.72;;;4.22;;
46318;SDS011;32042;50.916;2.926;2022-08-16T10:00:04;5.35;;;4.05;;
46318;SDS011;32042;50.916;2.926;2022-08-16T10:02:32;4.53;;;3.55;;
46318;SDS011;32042;50.916;2.926;2022-08-16T10:04:58;5.25;;;3.42;;
46318;SDS011;32042;50.916;2.926;2022-08-16T10:07:25;4.30;;;3.42;;
46318;SDS011;32042;50.916;2.926;2022-08-16T10:09:51;4.40;;;3.53;;
46318;SDS011;32042;50.916;2.926;2022-08-16T10:12:17;6.05;;;4.13;;
46318;SDS011;32042;50.916;2.926;2022-08-16T10:15:02;7.10;;;4.30;;
46318;SDS011;32042;50.916;2.926;2022-08-16T10:17:28;7.22;;;4.68;;
46318;SDS011;32042;50.916;2.926;2022-08-16T10:19:54;8.00;;;3.42;;
46318;SDS011;32042;50.916;2.926;2022-08-16T10:22:20;6.72;;;3.72;;
46318;SDS011;32042;50.916;2.926;2022-08-16T10:24:46;4.75;;;4.25;;
46318;SDS011;32042;50.916;2.926;2022-08-16T10:27:12;4.55;;;4.15;;
46318;SDS011;32042;50.916;2.926;2022-08-16T10:29:38;4.25;;;3.90;;
46318;SDS011;32042;50.916;2.926;2022-08-16T10:32:04;5.38;;;4.75;;
46318;SDS011;32042;50.916;2.926;2022-08-16T10:34:30;5.35;;;4.75;;
46318;SDS011;32042;50.916;2.926;2022-08-16T10:36:56;8.13;;;5.30;;
46318;SDS011;32042;50.916;2.926;2022-08-16T10:39:23;5.65;;;5.03;;
46318;SDS011;32042;50.916;2.926;2022-08-16T10:41:48;8.38;;;5.65;;
46318;SDS011;32042;50.916;2.926;2022-08-16T10:44:14;5.95;;;5.43;;
46318;SDS011;32042;50.916;2.926;2022-08-16T10:46:41;7.07;;;5.28;;
46318;SDS011;32042;50.916;2.926;2022-08-16T10:49:07;10.10;;;5.70;;
46318;SDS011;32042;50.916;2.926;2022-08-16T10:51:34;6.30;;;4.30;;
46318;SDS011;32042;50.916;2.926;2022-08-16T10:54:02;6.38;;;4.25;;
46318;SDS011;32042;50.916;2.926;2022-08-16T10:56:28;5.80;;;4.00;;
46318;SDS011;32042;50.916;2.926;2022-08-16T10:58:54;7.97;;;4.95;;
46318;SDS011;32042;50.916;2.926;2022-08-16T11:01:22;4.00;;;3.70;;
46318;SDS011;32042;50.916;2.926;2022-08-16T11:03:49;13.60;;;4.43;;
46318;SDS011;32042;50.916;2.926;2022-08-16T11:06:17;4.30;;;3.70;;
46318;SDS011;32042;50.916;2.926;2022-08-16T11:08:43;6.82;;;3.75;;
46318;SDS011;32042;50.916;2.926;2022-08-16T11:11:08;4.25;;;3.80;;
46318;SDS011;32042;50.916;2.926;2022-08-16T11:13:36;3.00;;;2.80;;
46318;SDS011;32042;50.916;2.926;2022-08-16T11:16:02;5.35;;;3.53;;
46318;SDS011;32042;50.916;2.926;2022-08-16T11:18:28;5.22;;;3.72;;
46318;SDS011;32042;50.916;2.926;2022-08-16T11:20:55;3.88;;;3.25;;
46318;SDS011;32042;50.916;2.926;2022-08-16T11:23:21;3.95;;;3.50;;
46318;SDS011;32042;50.916;2.926;2022-08-16T11:25:47;5.45;;;3.20;;
46318;SDS011;32042;50.916;2.926;2022-08-16T11:28:13;3.63;;;3.33;;
46318;SDS011;32042;50.916;2.926;2022-08-16T11:30:39;3.88;;;3.38;;
46318;SDS011;32042;50.916;2.926;2022-08-16T11:33:08;5.68;;;3.65;;
46318;SDS011;32042;50.916;2.926;2022-08-16T11:35:34;3.78;;;3.28;;
46318;SDS011;32042;50.916;2.926;2022-08-16T11:38:02;4.13;;;3.72;;
46318;SDS011;32042;50.916;2.926;2022-08-16T11:40:42;7.43;;;3.80;;
46318;SDS011;32042;50.916;2.926;2022-08-16T11:43:16;3.85;;;3.45;;
46318;SDS011;32042;50.916;2.926;2022-08-16T11:45:44;3.63;;;3.22;;
46318;SDS011;32042;50.916;2.926;2022-08-16T11:48:14;4.18;;;3.45;;
46318;SDS011;32042;50.916;2.926;2022-08-16T11:50:41;6.18;;;3.58;;
46318;SDS011;32042;50.916;2.926;2022-08-16T11:53:08;8.50;;;4.25;;
46318;SDS011;32042;50.916;2.926;2022-08-16T11:55:35;4.22;;;3.83;;
46318;SDS011;32042;50.916;2.926;2022-08-16T11:58:01;4.85;;;4.30;;
46318;SDS011;32042;50.916;2.926;2022-08-16T12:00:29;5.15;;;4.00;;
46318;SDS011;32042;50.916;2.926;2022-08-16T12:02:56;4.10;;;3.80;;
46318;SDS011;32042;50.916;2.926;2022-08-16T12:05:22;6.40;;;4.03;;
46318;SDS011;32042;50.916;2.926;2022-08-16T12:07:48;12.00;;;4.15;;
46318;SDS011;32042;50.916;2.926;2022-08-16T12:10:15;5.93;;;4.55;;
46318;SDS011;32042;50.916;2.926;2022-08-16T12:12:43;6.47;;;4.55;;
46318;SDS011;32042;50.916;2.926;2022-08-16T12:15:10;4.47;;;4.07;;
46318;SDS011;32042;50.916;2.926;2022-08-16T12:17:37;4.82;;;4.32;;
46318;SDS011;32042;50.916;2.926;2022-08-16T12:20:04;4.93;;;4.43;;
46318;SDS011;32042;50.916;2.926;2022-08-16T12:22:37;4.65;;;4.20;;
46318;SDS011;32042;50.916;2.926;2022-08-16T12:25:03;6.10;;;4.00;;
46318;SDS011;32042;50.916;2.926;2022-08-16T12:27:31;6.13;;;4.70;;
46318;SDS011;32042;50.916;2.926;2022-08-16T12:29:57;4.95;;;4.47;;
46318;SDS011;32042;50.916;2.926;2022-08-16T12:32:23;5.22;;;4.82;;
46318;SDS011;32042;50.916;2.926;2022-08-16T12:34:49;8.18;;;5.15;;
46318;SDS011;32042;50.916;2.926;2022-08-16T12:37:16;6.15;;;5.68;;
46318;SDS011;32042;50.916;2.926;2022-08-16T12:39:42;8.23;;;5.00;;
46318;SDS011;32042;50.916;2.926;2022-08-16T12:42:08;8.27;;;5.07;;
46318;SDS011;32042;50.916;2.926;2022-08-16T12:44:35;7.82;;;5.50;;
46318;SDS011;32042;50.916;2.926;2022-08-16T12:47:01;6.28;;;5.60;;
46318;SDS011;32042;50.916;2.926;2022-08-16T12:49:47;6.13;;;5.60;;
46318;SDS011;32042;50.916;2.926;2022-08-16T12:52:13;6.65;;;5.35;;
46318;SDS011;32042;50.916;2.926;2022-08-16T12:54:39;8.52;;;4.60;;
46318;SDS011;32042;50.916;2.926;2022-08-16T12:57:06;7.18;;;4.80;;
46318;SDS011;32042;50.916;2.926;2022-08-16T12:59:33;6.05;;;5.53;;
46318;SDS011;32042;50.916;2.926;2022-08-16T13:02:00;6.47;;;5.13;;
46318;SDS011;32042;50.916;2.926;2022-08-16T13:04:29;12.60;;;5.03;;
46318;SDS011;32042;50.916;2.926;2022-08-16T13:06:57;6.80;;;5.10;;
46318;SDS011;32042;50.916;2.926;2022-08-16T13:09:24;7.22;;;5.53;;
46318;SDS011;32042;50.916;2.926;2022-08-16T13:14:34;11.55;;;5.47;;
46318;SDS011;32042;50.916;2.926;2022-08-16T13:17:03;5.50;;;5.00;;
46318;SDS011;32042;50.916;2.926;2022-08-16T13:19:31;6.05;;;5.50;;
46318;SDS011;32042;50.916;2.926;2022-08-16T13:21:57;6.20;;;5.10;;
46318;SDS011;32042;50.916;2.926;2022-08-16T13:24:22;9.80;;;5.22;;
46318;SDS011;32042;50.916;2.926;2022-08-16T13:26:48;9.98;;;5.00;;
46318;SDS011;32042;50.916;2.926;2022-08-16T13:29:14;5.82;;;4.93;;
46318;SDS011;32042;50.916;2.926;2022-08-16T13:31:40;5.93;;;5.18;;
46318;SDS011;32042;50.916;2.926;2022-08-16T13:34:05;6.88;;;5.88;;
46318;SDS011;32042;50.916;2.926;2022-08-16T13:36:31;6.43;;;5.70;;
46318;SDS011;32042;50.916;2.926;2022-08-16T13:38:57;7.63;;;5.32;;
46318;SDS011;32042;50.916;2.926;2022-08-16T13:41:24;9.32;;;5.82;;
46318;SDS011;32042;50.916;2.926;2022-08-16T13:43:51;6.90;;;5.38;;
46318;SDS011;32042;50.916;2.926;2022-08-16T13:46:17;11.95;;;6.13;;
46318;SDS011;32042;50.916;2.926;2022-08-16T13:48:43;7.45;;;5.68;;
46318;SDS011;32042;50.916;2.926;2022-08-16T13:51:08;10.23;;;6.13;;
46318;SDS011;32042;50.916;2.926;2022-08-16T13:53:34;6.85;;;6.05;;
46318;SDS011;32042;50.916;2.926;2022-08-16T13:56:00;6.97;;;6.32;;
46318;SDS011;32042;50.916;2.926;2022-08-16T13:58:26;8.02;;;6.22;;
46318;SDS011;32042;50.916;2.926;2022-08-16T14:00:52;7.68;;;6.15;;
46318;SDS011;32042;50.916;2.926;2022-08-16T14:03:18;8.27;;;5.88;;
46318;SDS011;32042;50.916;2.926;2022-08-16T14:05:45;12.40;;;6.13;;
46318;SDS011;32042;50.916;2.926;2022-08-16T14:08:11;8.25;;;6.78;;
46318;SDS011;32042;50.916;2.926;2022-08-16T14:10:37;11.10;;;7.35;;
46318;SDS011;32042;50.916;2.926;2022-08-16T14:13:03;10.05;;;5.18;;
46318;SDS011;32042;50.916;2.926;2022-08-16T14:15:30;6.60;;;4.10;;
46318;SDS011;32042;50.916;2.926;2022-08-16T14:17:57;4.97;;;3.70;;
46318;SDS011;32042;50.916;2.926;2022-08-16T14:20:23;5.30;;;2.83;;
46318;SDS011;32042;50.916;2.926;2022-08-16T14:22:50;3.72;;;2.47;;
46318;SDS011;32042;50.916;2.926;2022-08-16T14:25:17;2.50;;;2.30;;
46318;SDS011;32042;50.916;2.926;2022-08-16T14:27:44;4.65;;;2.63;;
46318;SDS011;32042;50.916;2.926;2022-08-16T14:30:11;3.40;;;3.10;;
46318;SDS011;32042;50.916;2.926;2022-08-16T14:32:39;4.45;;;4.05;;
46318;SDS011;32042;50.916;2.926;2022-08-16T14:35:06;4.22;;;3.92;;
46318;SDS011;32042;50.916;2.926;2022-08-16T14:37:35;9.48;;;4.55;;
46318;SDS011;32042;50.916;2.926;2022-08-16T14:40:05;5.28;;;3.83;;